Time;durP1;ratioP1;P1;durP2;ratioP2;P2;SDS_P1;SDS_P2;PMS_P1;PMS_P2;Temp;Humidity;BMP_temperature;BMP_pressure;BME280_temperature;BME280_humidity;BME280_pressure;Samples;Min_cycle;Max_cycle;Signal;HPM_P1;HPM_P2
2021/06/20 00:01:05;;;;;;;13.53;8.55;;;;;;;25.22;67.80;100161.38;1745940;80;21150;-81
2021/06/20 00:03:31;;;;;;;15.40;8.35;;;;;;;25.28;67.84;100164.42;1746978;81;25410;-80
2021/06/20 00:05:59;;;;;;;14.53;8.30;;;;;;;25.15;68.32;100170.20;1720560;80;21269;-81
2021/06/20 00:08:25;;;;;;;14.83;8.65;;;;;;;25.05;68.60;100177.12;1739201;81;21219;-81
2021/06/20 00:10:51;;;;;;;15.58;8.48;;;;;;;25.01;68.66;100177.33;1712085;83;21238;-81
2021/06/20 00:13:18;;;;;;;12.33;8.53;;;;;;;25.12;68.26;100169.36;1714936;83;26626;-81
2021/06/20 00:15:46;;;;;;;13.70;8.48;;;;;;;25.04;68.78;100174.12;1709740;82;21164;-81
2021/06/20 00:18:12;;;;;;;12.43;8.40;;;;;;;24.99;68.90;100175.42;1756234;80;21205;-80
2021/06/20 00:20:41;;;;;;;14.28;8.98;;;;;;;24.91;69.07;100171.27;1755787;80;21019;-80
2021/06/20 00:23:07;;;;;;;12.35;8.73;;;;;;;24.84;69.75;100172.52;1739208;80;21187;-82
2021/06/20 00:25:33;;;;;;;14.73;8.50;;;;;;;24.78;70.01;100170.31;1722876;81;21300;-82
2021/06/20 00:27:59;;;;;;;15.53;8.58;;;;;;;24.76;70.09;100179.17;1730338;80;21334;-82
2021/06/20 00:30:27;;;;;;;12.30;8.57;;;;;;;24.76;70.10;100175.66;1731621;80;20939;-82
2021/06/20 00:32:53;;;;;;;18.00;8.78;;;;;;;24.72;70.25;100176.16;1751822;81;21022;-81
2021/06/20 00:35:19;;;;;;;14.38;9.40;;;;;;;24.65;70.16;100178.77;1741619;80;21037;-82
2021/06/20 00:37:45;;;;;;;14.90;9.45;;;;;;;24.64;70.21;100181.16;1722499;81;21564;-85
2021/06/20 00:40:11;;;;;;;15.10;9.55;;;;;;;24.65;70.02;100183.62;1739719;81;20980;-83
2021/06/20 00:42:37;;;;;;;12.37;9.13;;;;;;;24.64;70.00;100173.91;1727481;80;21016;-79
2021/06/20 00:45:05;;;;;;;16.33;9.47;;;;;;;24.61;70.18;100166.30;1727133;81;27145;-80
2021/06/20 00:47:31;;;;;;;16.85;9.40;;;;;;;24.68;69.83;100169.62;1734209;81;21808;-79
2021/06/20 00:49:57;;;;;;;16.40;9.50;;;;;;;24.59;70.08;100165.71;1720762;80;20878;-81
2021/06/20 00:52:23;;;;;;;12.63;9.17;;;;;;;24.44;71.03;100161.41;1721234;81;21278;-80
2021/06/20 00:54:49;;;;;;;15.03;9.05;;;;;;;24.42;70.82;100164.91;1729243;81;20941;-80
2021/06/20 00:57:18;;;;;;;13.65;9.20;;;;;;;24.42;70.60;100165.70;1709555;83;21347;-81
2021/06/20 00:59:45;;;;;;;12.33;8.90;;;;;;;24.41;70.59;100172.70;1697613;83;21897;-81
2021/06/20 01:02:13;;;;;;;12.87;9.10;;;;;;;24.40;70.55;100181.34;1720186;82;21058;-82
2021/06/20 01:04:40;;;;;;;15.03;9.55;;;;;;;24.34;70.66;100172.34;1709450;82;21221;-81
2021/06/20 01:07:06;;;;;;;13.43;9.15;;;;;;;24.31;70.72;100164.73;1677331;84;21945;-80
2021/06/20 01:09:31;;;;;;;15.05;9.05;;;;;;;24.30;70.95;100168.52;1711832;83;21146;-81
2021/06/20 01:11:58;;;;;;;15.10;8.60;;;;;;;24.26;71.00;100159.27;1729635;82;21105;-80
2021/06/20 01:14:23;;;;;;;14.85;9.23;;;;;;;24.23;71.17;100161.12;1764516;80;21034;-81
2021/06/20 01:16:51;;;;;;;13.95;8.88;;;;;;;24.24;71.06;100165.45;1775890;78;21671;-80
2021/06/20 01:19:19;;;;;;;13.22;8.83;;;;;;;24.21;70.88;100164.60;1753459;80;21031;-80
2021/06/20 01:21:45;;;;;;;14.43;8.68;;;;;;;24.14;71.25;100166.64;1777557;80;20947;-80
2021/06/20 01:24:10;;;;;;;11.83;8.63;;;;;;;24.21;71.05;100157.86;1768963;79;21157;-80
2021/06/20 01:26:36;;;;;;;12.90;8.35;;;;;;;24.21;70.72;100151.11;1751897;79;20877;-80
2021/06/20 01:29:07;;;;;;;15.40;8.78;;;;;;;24.15;70.97;100147.50;1770072;79;20888;-80
2021/06/20 01:31:32;;;;;;;12.53;8.90;;;;;;;24.10;70.95;100146.59;1765294;79;21025;-82
2021/06/20 01:33:57;;;;;;;16.00;8.65;;;;;;;24.09;71.13;100144.98;1758317;79;21645;-80
2021/06/20 01:36:23;;;;;;;16.55;8.65;;;;;;;24.05;71.21;100150.58;1760521;79;21008;-81
2021/06/20 01:38:49;;;;;;;12.85;9.25;;;;;;;24.05;71.33;100145.18;1754763;79;21166;-81
2021/06/20 01:41:14;;;;;;;14.00;8.53;;;;;;;23.97;71.69;100145.05;1759201;79;20837;-80
2021/06/20 01:43:40;;;;;;;17.55;9.50;;;;;;;23.97;71.49;100139.16;1760416;79;20941;-81
2021/06/20 01:46:06;;;;;;;12.40;8.93;;;;;;;23.93;71.70;100142.05;1761532;79;20896;-80
2021/06/20 01:48:32;;;;;;;17.62;8.43;;;;;;;23.90;71.74;100139.83;1751754;79;21057;-80
2021/06/20 01:50:58;;;;;;;14.15;9.60;;;;;;;23.90;71.83;100143.07;1760643;79;20909;-80
2021/06/20 01:53:23;;;;;;;13.00;8.58;;;;;;;23.89;71.65;100145.47;1746126;79;21049;-81
2021/06/20 01:55:49;;;;;;;12.35;8.38;;;;;;;23.93;71.29;100138.00;1772970;79;21037;-81
2021/06/20 01:58:17;;;;;;;14.47;9.20;;;;;;;23.81;71.86;100139.92;1770805;79;20902;-82
2021/06/20 02:00:49;;;;;;;13.18;9.20;;;;;;;23.68;72.79;100150.50;1746807;79;21247;-81
2021/06/20 02:03:18;;;;;;;16.00;9.15;;;;;;;23.71;72.42;100149.17;1745892;79;20969;-80
2021/06/20 02:05:46;;;;;;;12.28;9.70;;;;;;;23.62;72.80;100149.58;1755135;79;21034;-80
2021/06/20 02:08:12;;;;;;;13.45;9.13;;;;;;;23.62;72.70;100146.88;1749261;79;21036;-81
2021/06/20 02:10:39;;;;;;;16.45;9.60;;;;;;;23.61;72.88;100149.82;1769996;79;21022;-82
2021/06/20 02:13:05;;;;;;;15.35;9.18;;;;;;;23.55;73.31;100152.95;1748982;79;21102;-81
2021/06/20 02:15:31;;;;;;;13.93;9.58;;;;;;;23.51;73.42;100155.86;1758759;79;21655;-81
2021/06/20 02:17:57;;;;;;;12.68;8.63;;;;;;;23.53;73.12;100156.42;1746429;79;21096;-81
2021/06/20 02:20:23;;;;;;;16.17;9.20;;;;;;;23.46;73.66;100150.35;1746405;79;21337;-82
2021/06/20 02:22:52;;;;;;;14.90;9.60;;;;;;;23.43;73.92;100153.02;1760738;79;21154;-81
2021/06/20 02:25:20;;;;;;;16.32;9.58;;;;;;;23.40;73.78;100160.23;1752384;79;21186;-81
2021/06/20 02:27:48;;;;;;;13.38;9.20;;;;;;;23.37;73.94;100165.27;1757137;79;21074;-81
2021/06/20 02:30:15;;;;;;;13.40;9.05;;;;;;;23.36;74.08;100170.39;1759337;79;21040;-80
2021/06/20 02:32:41;;;;;;;13.55;9.40;;;;;;;23.37;73.92;100165.27;1772198;79;21013;-80
2021/06/20 02:35:11;;;;;;;15.58;8.98;;;;;;;23.36;73.94;100168.50;1753496;79;20879;-80
2021/06/20 02:37:38;;;;;;;12.30;9.08;;;;;;;23.33;74.18;100167.64;1751851;79;21147;-81
2021/06/20 02:40:06;;;;;;;13.15;8.73;;;;;;;23.33;74.16;100172.22;1767765;79;20944;-80
2021/06/20 02:42:32;;;;;;;14.28;8.78;;;;;;;23.33;74.26;100173.56;1764032;79;21225;-80
2021/06/20 02:44:58;;;;;;;12.47;8.23;;;;;;;23.37;74.14;100174.70;1763912;79;21019;-80
2021/06/20 02:47:23;;;;;;;12.65;8.78;;;;;;;23.49;73.92;100182.22;1763000;79;20890;-80
2021/06/20 02:49:49;;;;;;;18.75;8.95;;;;;;;23.49;73.92;100182.22;1767781;79;21060;-80
2021/06/20 02:52:15;;;;;;;14.25;8.95;;;;;;;23.48;73.46;100181.41;1770856;79;20935;-81
2021/06/20 02:54:51;;;;;;;14.38;9.25;;;;;;;23.53;73.32;100189.31;1750374;79;21017;-80
2021/06/20 02:57:22;;;;;;;14.95;9.30;;;;;;;23.51;73.21;100190.90;1771060;80;21100;-80
2021/06/20 02:59:47;;;;;;;11.08;8.70;;;;;;;23.54;73.08;100187.72;1768393;77;21044;-78
2021/06/20 03:02:13;;;;;;;13.93;9.40;;;;;;;23.59;72.74;100186.45;1814397;78;21473;-79
2021/06/20 03:04:39;;;;;;;13.95;8.83;;;;;;;23.52;73.11;100184.42;1814789;76;20875;-79
2021/06/20 03:07:05;;;;;;;13.70;8.85;;;;;;;23.51;72.96;100181.47;1786837;78;20875;-78
2021/06/20 03:09:31;;;;;;;10.93;8.40;;;;;;;23.51;72.96;100181.47;1808142;78;20927;-79
2021/06/20 03:11:56;;;;;;;14.47;9.20;;;;;;;23.54;72.71;100184.19;1813974;78;20886;-79
2021/06/20 03:14:22;;;;;;;12.98;8.48;;;;;;;23.56;72.57;100186.94;1814151;76;21065;-78
2021/06/20 03:16:48;;;;;;;11.40;8.48;;;;;;;23.54;72.63;100182.33;1821797;76;22177;-79
2021/06/20 03:19:14;;;;;;;11.28;8.63;;;;;;;23.55;72.53;100186.64;1817975;78;21001;-79
2021/06/20 03:21:43;;;;;;;15.23;9.10;;;;;;;23.56;72.47;100180.20;1784540;78;22437;-80
2021/06/20 03:24:09;;;;;;;13.95;8.28;;;;;;;23.62;72.27;100185.16;1818251;76;21056;-79
2021/06/20 03:26:35;;;;;;;13.03;8.08;;;;;;;23.61;72.17;100180.28;1810743;76;21625;-79
2021/06/20 03:29:01;;;;;;;14.40;8.33;;;;;;;23.60;72.17;100189.45;1811959;78;21095;-80
2021/06/20 03:31:27;;;;;;;16.40;8.73;;;;;;;23.60;72.07;100189.45;1810565;78;20847;-79
2021/06/20 03:33:53;;;;;;;14.23;8.33;;;;;;;23.61;71.94;100185.67;1813055;76;21132;-79
2021/06/20 03:36:19;;;;;;;11.45;7.80;;;;;;;23.61;71.91;100188.38;1821557;78;21013;-79
2021/06/20 03:38:45;;;;;;;11.80;8.60;;;;;;;23.64;71.93;100189.78;1818606;78;22343;-79
2021/06/20 03:41:11;;;;;;;11.73;7.55;;;;;;;23.68;71.79;100184.70;1821406;78;21140;-79
2021/06/20 03:43:38;;;;;;;12.45;7.60;;;;;;;23.64;71.72;100179.80;1817901;78;20911;-79
2021/06/20 03:46:04;;;;;;;12.88;8.13;;;;;;;23.65;71.68;100170.66;1810839;76;20998;-79
2021/06/20 03:48:29;;;;;;;10.70;7.90;;;;;;;23.68;71.58;100168.53;1823463;76;21617;-79
2021/06/20 03:50:55;;;;;;;12.05;7.60;;;;;;;23.69;71.48;100165.59;1814563;77;21876;-79
2021/06/20 03:53:21;;;;;;;12.40;7.40;;;;;;;23.74;71.23;100166.21;1810557;78;20921;-79
2021/06/20 03:55:47;;;;;;;12.57;8.33;;;;;;;23.69;71.42;100154.00;1810949;76;20899;-79
2021/06/20 03:58:13;;;;;;;12.37;7.55;;;;;;;23.72;71.32;100158.91;1809959;78;20843;-79
2021/06/20 04:00:38;;;;;;;12.00;7.72;;;;;;;23.68;71.49;100152.36;1806266;78;20974;-81
2021/06/20 04:03:07;;;;;;;13.88;7.70;;;;;;;23.78;70.99;100156.59;1817864;78;21144;-81
2021/06/20 04:05:32;;;;;;;13.88;7.10;;;;;;;23.87;70.74;100149.77;1821095;78;20918;-80
2021/06/20 04:07:59;;;;;;;11.95;7.22;;;;;;;23.90;70.85;100153.86;1813218;77;21157;-81
2021/06/20 04:10:25;;;;;;;12.23;7.83;;;;;;;23.92;70.79;100159.28;1815292;78;21127;-80
2021/06/20 04:12:52;;;;;;;11.90;7.60;;;;;;;23.99;70.49;100162.64;1818034;76;20867;-81
2021/06/20 04:15:18;;;;;;;8.78;6.53;;;;;;;23.98;70.47;100169.09;1810323;78;21165;-81
2021/06/20 04:17:44;;;;;;;9.98;6.83;;;;;;;23.98;70.45;100167.73;1821689;78;21559;-80
2021/06/20 04:20:12;;;;;;;11.73;6.83;;;;;;;24.00;70.30;100173.73;1814200;76;21011;-83
2021/06/20 04:22:39;;;;;;;9.40;6.37;;;;;;;24.05;70.15;100182.95;1810377;78;20991;-80
2021/06/20 04:25:05;;;;;;;9.98;6.87;;;;;;;24.12;70.05;100184.42;1817850;78;21045;-81
2021/06/20 04:27:31;;;;;;;10.98;6.75;;;;;;;24.11;70.22;100188.71;1811114;76;21062;-81
2021/06/20 04:29:57;;;;;;;10.40;7.53;;;;;;;24.19;70.13;100190.99;1812825;78;21141;-81
2021/06/20 04:32:23;;;;;;;16.30;7.50;;;;;;;24.24;70.09;100185.70;1811202;78;20867;-81
2021/06/20 04:34:48;;;;;;;10.87;7.37;;;;;;;24.27;69.64;100189.77;1818115;78;22913;-82
2021/06/20 04:37:14;;;;;;;11.30;6.97;;;;;;;24.31;69.51;100186.33;1810965;78;21486;-81
2021/06/20 04:39:40;;;;;;;11.00;7.03;;;;;;;24.35;69.43;100184.78;1817377;78;21981;-80
2021/06/20 04:42:09;;;;;;;10.90;7.15;;;;;;;24.34;69.45;100173.69;1817902;78;20847;-81
2021/06/20 04:44:43;;;;;;;10.32;6.70;;;;;;;24.30;69.54;100171.22;1821318;77;20982;-80
2021/06/20 04:47:14;;;;;;;13.98;7.28;;;;;;;24.42;69.13;100174.34;1817873;78;21042;-81
2021/06/20 04:49:39;;;;;;;9.05;6.80;;;;;;;24.51;68.62;100178.27;1817665;78;20934;-81
2021/06/20 04:52:07;;;;;;;9.10;6.33;;;;;;;24.52;68.53;100175.31;1810225;78;21781;-81
2021/06/20 04:54:35;;;;;;;10.53;6.10;;;;;;;24.59;68.35;100181.91;1778371;78;21127;-81
2021/06/20 04:57:02;;;;;;;11.60;5.97;;;;;;;24.67;68.41;100180.16;1810181;76;21080;-78
2021/06/20 04:59:28;;;;;;;8.73;5.60;;;;;;;24.82;67.68;100180.06;1810369;76;21185;-79
2021/06/20 05:01:54;;;;;;;25.60;6.58;;;;;;;24.86;67.06;100179.32;1807746;76;20998;-79
2021/06/20 05:04:20;;;;;;;10.78;6.00;;;;;;;24.94;66.86;100167.27;1821774;78;21261;-79
2021/06/20 05:06:45;;;;;;;8.13;5.60;;;;;;;24.95;66.69;100170.23;1817833;76;21245;-81
2021/06/20 05:09:11;;;;;;;7.35;5.10;;;;;;;25.08;66.13;100165.80;1809944;76;20859;-80
2021/06/20 05:11:37;;;;;;;9.63;5.40;;;;;;;25.12;65.76;100157.19;1806205;78;20871;-80
2021/06/20 05:14:03;;;;;;;7.80;5.30;;;;;;;25.21;65.60;100161.08;1806435;76;21319;-81
2021/06/20 05:16:28;;;;;;;10.82;5.40;;;;;;;25.15;65.33;100158.04;1818922;78;21308;-83
2021/06/20 05:18:56;;;;;;;7.95;5.17;;;;;;;25.11;65.28;100161.80;1817943;77;20850;-82
2021/06/20 05:21:22;;;;;;;7.45;5.28;;;;;;;25.17;65.23;100163.48;1813570;76;21295;-82
2021/06/20 05:23:47;;;;;;;6.83;4.92;;;;;;;25.18;65.03;100162.39;1813904;78;21583;-82
2021/06/20 05:26:14;;;;;;;7.85;4.80;;;;;;;25.23;64.62;100167.05;1816312;78;20835;-82
2021/06/20 05:28:42;;;;;;;6.53;4.75;;;;;;;25.20;64.83;100156.73;1804252;78;21220;-82
2021/06/20 05:31:07;;;;;;;9.83;4.42;;;;;;;25.23;64.56;100154.37;1817377;77;20922;-81
2021/06/20 05:33:33;;;;;;;7.75;4.70;;;;;;;25.24;64.21;100160.58;1810143;77;20953;-81
2021/06/20 05:35:59;;;;;;;7.37;4.63;;;;;;;25.28;63.81;100161.72;1803067;78;26874;-81
2021/06/20 05:38:24;;;;;;;10.80;4.72;;;;;;;25.32;63.12;100159.34;1819243;78;21265;-81
2021/06/20 05:40:50;;;;;;;6.67;4.05;;;;;;;25.25;63.30;100160.33;1809963;78;21074;-81
2021/06/20 05:43:17;;;;;;;6.70;4.20;;;;;;;25.29;62.74;100151.20;1816811;76;20929;-82
2021/06/20 05:45:42;;;;;;;9.53;4.20;;;;;;;25.34;62.66;100148.56;1810160;78;21541;-82
2021/06/20 05:48:08;;;;;;;6.75;4.42;;;;;;;25.41;62.77;100144.30;1818925;76;21071;-79
2021/06/20 05:50:34;;;;;;;5.97;4.30;;;;;;;25.38;62.21;100142.91;1817056;78;21103;-79
2021/06/20 05:53:00;;;;;;;7.50;4.35;;;;;;;25.43;62.27;100144.85;1813859;78;21065;-77
2021/06/20 05:55:26;;;;;;;9.90;4.67;;;;;;;25.49;62.52;100143.03;1819794;78;21801;-79
2021/06/20 05:57:51;;;;;;;10.03;4.60;;;;;;;25.52;62.26;100141.97;1810675;78;26016;-81
2021/06/20 06:00:19;;;;;;;9.18;4.53;;;;;;;25.57;62.20;100153.38;1817684;78;28162;-79
2021/06/20 06:02:44;;;;;;;;;;;;;;;25.68;62.02;100145.63;1820897;76;21160;-81
2021/06/20 06:05:10;;;;;;;5.90;4.30;;;;;;;25.70;61.88;100144.02;1818142;78;21056;-79
2021/06/20 06:07:36;;;;;;;5.42;4.35;;;;;;;25.80;61.73;100150.33;1818127;76;21264;-80
2021/06/20 06:10:04;;;;;;;8.87;4.30;;;;;;;25.84;61.17;100147.11;1784766;78;20929;-80
2021/06/20 06:12:30;;;;;;;8.10;4.28;;;;;;;25.91;60.82;100145.02;1814511;76;21517;-80
2021/06/20 06:14:56;;;;;;;6.87;4.15;;;;;;;25.98;60.59;100147.01;1814472;78;20977;-79
2021/06/20 06:17:22;;;;;;;4.93;4.10;;;;;;;26.06;60.41;100146.52;1817954;76;27807;-80
2021/06/20 06:19:52;;;;;;;6.92;4.03;;;;;;;26.09;60.21;100144.66;1817498;78;21567;-81
2021/06/20 06:22:20;;;;;;;6.90;4.17;;;;;;;26.13;60.30;100137.66;1821877;78;20971;-80
2021/06/20 06:24:46;;;;;;;7.90;4.42;;;;;;;26.13;60.61;100137.66;1818228;78;21733;-81
2021/06/20 06:27:13;;;;;;;7.90;4.37;;;;;;;26.13;60.61;100137.66;1822393;77;20934;-81
2021/06/20 06:29:38;;;;;;;6.50;4.30;;;;;;;26.25;60.63;100154.23;1819428;78;21294;-81
2021/06/20 06:32:06;;;;;;;8.08;4.60;;;;;;;26.28;60.55;100155.06;1812955;78;21178;-81
2021/06/20 06:34:33;;;;;;;8.23;4.92;;;;;;;26.33;60.48;100155.09;1817745;76;21536;-81
2021/06/20 06:36:58;;;;;;;5.53;4.10;;;;;;;26.26;60.21;100155.87;1817845;76;21112;-81
2021/06/20 06:39:25;;;;;;;7.30;4.47;;;;;;;26.29;60.71;100162.13;1817986;76;20973;-81
2021/06/20 06:41:52;;;;;;;7.72;4.50;;;;;;;26.35;59.90;100161.05;1814134;78;21178;-81
2021/06/20 06:44:17;;;;;;;7.77;5.00;;;;;;;26.43;60.10;100164.64;1806723;76;20974;-81
2021/06/20 06:46:44;;;;;;;8.58;4.92;;;;;;;26.53;60.09;100172.55;1810097;76;20958;-82
2021/06/20 06:49:09;;;;;;;10.00;5.03;;;;;;;26.61;59.57;100184.23;1817658;76;21057;-81
2021/06/20 06:51:35;;;;;;;6.17;4.65;;;;;;;26.61;59.57;100184.23;1810452;76;21387;-80
2021/06/20 06:54:01;;;;;;;7.40;4.85;;;;;;;26.68;59.73;100179.45;1821263;76;21299;-80
2021/06/20 06:56:27;;;;;;;10.72;4.80;;;;;;;26.73;59.22;100179.46;1814657;78;20851;-81
2021/06/20 06:58:52;;;;;;;7.43;4.77;;;;;;;26.79;58.89;100181.12;1821678;76;20903;-80
2021/06/20 07:01:18;;;;;;;8.75;4.65;;;;;;;26.87;58.71;100177.89;1813269;78;20914;-82
2021/06/20 07:03:44;;;;;;;6.97;4.78;;;;;;;26.90;58.28;100174.41;1808129;78;20867;-81
2021/06/20 07:06:11;;;;;;;9.50;4.93;;;;;;;26.98;57.69;100177.95;1817758;76;27156;-80
2021/06/20 07:08:37;;;;;;;6.35;4.53;;;;;;;27.01;57.06;100174.71;1814018;78;20920;-82
2021/06/20 07:11:03;;;;;;;6.30;4.43;;;;;;;27.03;56.76;100164.41;1814448;76;21017;-79
2021/06/20 07:13:29;;;;;;;6.00;4.53;;;;;;;27.19;56.46;100169.33;1818067;76;21048;-82
2021/06/20 07:15:55;;;;;;;8.20;4.60;;;;;;;27.35;55.74;100165.63;1818276;76;20890;-83
2021/06/20 07:18:20;;;;;;;6.92;4.50;;;;;;;27.48;55.31;100161.58;1766793;78;21069;-81
2021/06/20 07:20:49;;;;;;;6.53;4.70;;;;;;;27.65;54.94;100174.09;1750240;79;22710;-84
2021/06/20 07:23:15;;;;;;;7.15;4.65;;;;;;;27.69;54.61;100163.78;1749774;79;21555;-81
2021/06/20 07:25:41;;;;;;;9.83;4.50;;;;;;;27.79;54.39;100171.66;1767924;77;21839;-80
2021/06/20 07:28:07;;;;;;;7.03;4.63;;;;;;;27.86;54.12;100168.95;1794183;78;20983;-82
2021/06/20 07:30:33;;;;;;;6.25;4.67;;;;;;;27.87;54.09;100169.20;1746858;79;21187;-84
2021/06/20 07:32:59;;;;;;;8.43;4.50;;;;;;;27.95;54.15;100174.66;1751521;79;21255;-82
2021/06/20 07:35:25;;;;;;;6.03;4.67;;;;;;;28.00;54.04;100162.47;1759863;79;20908;-82
2021/06/20 07:37:51;;;;;;;5.73;4.60;;;;;;;28.00;54.21;100159.75;1772754;79;21091;-81
2021/06/20 07:40:17;;;;;;;5.50;4.12;;;;;;;28.02;53.93;100158.13;1755262;79;26580;-81
2021/06/20 07:42:44;;;;;;;8.13;4.80;;;;;;;28.07;53.27;100158.91;1762606;79;21073;-77
2021/06/20 07:45:10;;;;;;;;;;;;;;;28.11;53.54;100164.64;1759918;79;21269;-82
2021/06/20 07:47:37;;;;;;;9.10;4.80;;;;;;;28.17;53.43;100162.19;1753051;79;20176;-81
2021/06/20 07:50:09;;;;;;;6.35;4.53;;;;;;;28.25;53.44;100158.11;1758291;79;21021;-79
2021/06/20 07:52:35;;;;;;;6.75;4.87;;;;;;;28.20;53.34;100153.50;1746247;79;21554;-82
2021/06/20 07:55:01;;;;;;;7.40;4.83;;;;;;;28.19;53.14;100154.58;1753893;79;21375;-80
2021/06/20 07:57:27;;;;;;;7.70;4.40;;;;;;;28.24;53.64;100153.20;1750880;79;21515;-81
2021/06/20 07:59:53;;;;;;;5.93;4.20;;;;;;;28.29;52.43;100154.56;1760951;79;21330;-79
2021/06/20 08:02:18;;;;;;;6.45;4.50;;;;;;;28.35;52.29;100149.92;1750054;80;20881;-81
2021/06/20 08:04:44;;;;;;;5.97;4.10;;;;;;;28.37;52.49;100151.00;1766767;80;21139;-79
2021/06/20 08:07:10;;;;;;;4.83;4.17;;;;;;;28.49;52.55;100158.31;1757548;80;21118;-79
2021/06/20 08:09:36;;;;;;;4.97;3.70;;;;;;;28.52;52.65;100161.83;1779823;78;21433;-77
2021/06/20 08:12:03;;;;;;;7.13;3.80;;;;;;;28.61;51.52;100160.77;1804514;77;20920;-83
2021/06/20 08:14:30;;;;;;;6.75;4.22;;;;;;;28.64;52.04;100154.78;1753544;79;21645;-81
2021/06/20 08:16:56;;;;;;;7.17;4.08;;;;;;;28.69;51.61;100158.02;1761746;77;21154;-79
2021/06/20 08:19:21;;;;;;;5.70;4.30;;;;;;;28.75;50.63;100159.08;1803511;78;21126;-77
2021/06/20 08:21:47;;;;;;;7.70;4.20;;;;;;;28.67;50.81;100161.55;1818138;78;21361;-80
2021/06/20 08:24:13;;;;;;;7.40;4.33;;;;;;;28.73;50.99;100159.08;1785826;76;20884;-77
2021/06/20 08:26:39;;;;;;;7.00;3.83;;;;;;;28.73;50.92;100159.08;1787450;78;21018;-77
2021/06/20 08:29:05;;;;;;;4.83;3.50;;;;;;;28.79;49.99;100156.61;1776811;80;20965;-79
2021/06/20 08:31:32;;;;;;;5.17;3.70;;;;;;;28.83;50.36;100160.41;1783867;78;21149;-80
2021/06/20 08:33:58;;;;;;;;;;;;;;;28.96;49.57;100154.38;1786216;77;20966;-82
2021/06/20 08:36:24;;;;;;;6.03;3.50;;;;;;;29.01;49.47;100150.27;1780573;80;20243;-77
2021/06/20 08:38:49;;;;;;;7.90;3.63;;;;;;;29.00;50.43;100149.99;1784317;80;21654;-80
2021/06/20 08:41:15;;;;;;;5.70;3.67;;;;;;;29.06;50.28;100141.28;1782560;78;20881;-77
2021/06/20 08:43:42;;;;;;;8.47;3.70;;;;;;;29.13;50.33;100147.76;1767533;79;21077;-76
2021/06/20 08:46:10;;;;;;;8.25;3.58;;;;;;;29.17;49.86;100150.20;1782667;77;21308;-80
2021/06/20 08:48:36;;;;;;;7.12;3.80;;;;;;;29.18;49.90;100149.11;1774191;79;20964;-77
2021/06/20 08:51:02;;;;;;;6.00;3.33;;;;;;;29.15;49.65;100150.47;1780182;78;21074;-78
2021/06/20 08:53:28;;;;;;;6.10;3.73;;;;;;;29.18;49.44;100155.35;1776853;78;20927;-79
2021/06/20 08:55:54;;;;;;;4.40;3.50;;;;;;;29.16;49.55;100155.36;1787899;80;21240;-78
2021/06/20 08:58:26;;;;;;;7.03;3.83;;;;;;;29.09;49.34;100153.51;1770776;79;22035;-77
2021/06/20 09:00:54;;;;;;;5.92;3.70;;;;;;;29.08;49.69;100154.59;1774709;77;21126;-79
2021/06/20 09:03:19;;;;;;;5.15;3.83;;;;;;;29.21;49.61;100158.10;1763219;79;21132;-76
2021/06/20 09:06:04;;;;;;;5.47;3.33;;;;;;;29.22;49.54;100159.70;1747108;79;20874;-80
2021/06/20 09:08:30;;;;;;;6.10;3.33;;;;;;;29.33;49.60;100159.94;1761217;79;21181;-77
2021/06/20 09:10:56;;;;;;;5.93;3.17;;;;;;;29.38;49.43;100151.45;1752511;79;21114;-79
2021/06/20 09:13:22;;;;;;;5.53;2.90;;;;;;;29.43;47.46;100140.53;1760853;79;27520;-76
2021/06/20 09:15:59;;;;;;;9.07;2.83;;;;;;;29.49;47.71;100139.40;1753407;79;21166;-78
2021/06/20 09:18:25;;;;;;;5.72;2.98;;;;;;;29.55;47.12;100135.55;1758326;79;21108;-78
2021/06/20 09:20:51;;;;;;;7.03;2.97;;;;;;;29.69;46.67;100131.11;1746108;79;21450;-79
2021/06/20 09:23:17;;;;;;;5.00;3.10;;;;;;;29.85;46.20;100125.00;1757809;79;21024;-77
2021/06/20 09:25:45;;;;;;;6.50;3.30;;;;;;;29.91;46.60;100132.59;1777664;80;20983;-76
2021/06/20 09:28:12;;;;;;;4.95;3.00;;;;;;;29.99;46.23;100129.23;1753387;79;20965;-76
2021/06/20 09:30:51;;;;;;;;;;;;;;;30.08;46.15;100132.16;1763210;79;21051;-77
2021/06/20 09:33:18;;;;;;;5.08;2.70;;;;;;;30.18;46.46;100129.88;1754061;79;22038;-79
2021/06/20 09:35:58;;;;;;;4.75;2.62;;;;;;;30.21;45.30;100123.30;1763749;79;21073;-77
2021/06/20 09:38:29;;;;;;;5.90;2.70;;;;;;;30.21;45.16;100126.02;1714895;81;21095;-80
2021/06/20 09:41:10;;;;;;;5.97;2.52;;;;;;;30.30;44.51;100130.30;1739077;81;21060;-76
2021/06/20 09:43:39;;;;;;;4.58;2.62;;;;;;;30.31;43.96;100131.90;1738022;81;21081;-76
2021/06/20 09:46:05;;;;;;;5.75;2.45;;;;;;;30.33;43.65;100127.52;1721515;80;21097;-77
2021/06/20 09:48:35;;;;;;;3.93;2.60;;;;;;;30.41;43.83;100124.22;1746085;80;20922;-79
2021/06/20 09:51:17;;;;;;;5.50;2.58;;;;;;;30.43;44.08;100122.01;1758017;78;21293;-76
2021/06/20 09:53:44;;;;;;;5.45;2.58;;;;;;;30.43;43.61;100122.01;1766552;80;21376;-77
2021/06/20 09:56:33;;;;;;;3.30;2.30;;;;;;;30.50;42.94;100118.92;1763380;79;21108;-78
2021/06/20 09:59:01;;;;;;;5.33;2.37;;;;;;;30.40;42.39;100120.66;1761543;79;21043;-78
2021/06/20 10:01:28;;;;;;;3.05;1.90;;;;;;;30.45;41.41;100121.72;1751878;79;20992;-79
2021/06/20 10:03:54;;;;;;;;;;;;;;;30.41;39.98;100111.39;1758452;79;21783;-77
2021/06/20 10:06:20;;;;;;;2.87;2.00;;;;;;;30.38;39.75;100110.58;1758816;80;20163;-78
2021/06/20 10:08:46;;;;;;;3.33;2.20;;;;;;;30.47;40.41;100103.98;1766155;80;20873;-80
2021/06/20 10:11:12;;;;;;;4.30;2.30;;;;;;;30.51;39.86;100107.73;1764513;80;21481;-78
2021/06/20 10:13:39;;;;;;;3.65;2.20;;;;;;;30.60;40.17;100102.46;1749929;79;47899;-77
2021/06/20 10:16:21;;;;;;;4.17;2.43;;;;;;;30.62;40.16;100096.16;1757297;78;20979;-77
2021/06/20 10:19:01;;;;;;;4.28;2.50;;;;;;;30.70;40.36;100103.70;1756951;78;21023;-75
2021/06/20 10:21:36;;;;;;;6.72;2.25;;;;;;;30.73;41.08;100097.67;1759139;79;21133;-77
2021/06/20 10:24:18;;;;;;;4.95;2.30;;;;;;;30.80;41.06;100087.76;1753619;78;21304;-79
2021/06/20 10:27:06;;;;;;;3.67;2.20;;;;;;;30.84;40.71;100092.06;1758243;79;21073;-80
2021/06/20 10:29:34;;;;;;;8.90;2.35;;;;;;;30.87;39.70;100083.30;1759270;79;21060;-79
2021/06/20 10:32:17;;;;;;;3.52;2.20;;;;;;;30.83;39.48;100085.81;1762514;80;21983;-80
2021/06/20 10:34:58;;;;;;;3.72;2.50;;;;;;;30.87;40.33;100084.66;1745926;79;21044;-79
2021/06/20 10:37:26;;;;;;;6.12;2.40;;;;;;;30.90;39.91;100080.78;1753928;79;21252;-77
2021/06/20 10:39:54;;;;;;;3.67;2.45;;;;;;;30.92;39.51;100087.30;1773325;77;21004;-77
2021/06/20 10:42:20;;;;;;;3.83;2.30;;;;;;;31.01;39.54;100080.12;1819845;77;21068;-79
2021/06/20 10:44:52;;;;;;;5.07;2.40;;;;;;;31.03;39.27;100068.91;1801724;77;20839;-77
2021/06/20 10:47:28;;;;;;;5.58;2.50;;;;;;;31.10;39.90;100058.45;1806675;77;21082;-77
2021/06/20 10:50:05;;;;;;;;;;;;;;;31.15;40.18;100062.45;1829119;77;20987;-75
2021/06/20 10:52:31;;;;;;;5.85;2.58;;;;;;;31.14;40.02;100060.30;1815168;77;20294;-75
2021/06/20 10:55:11;;;;;;;4.47;2.50;;;;;;;31.21;39.96;100060.47;1831643;77;20939;-75
2021/06/20 10:57:55;;;;;;;4.37;2.52;;;;;;;31.22;40.38;100048.46;1824439;77;21776;-75
2021/06/20 11:00:31;;;;;;;4.45;2.50;;;;;;;31.33;40.49;100049.91;1827840;77;20900;-75
2021/06/20 11:03:12;;;;;;;;;;;;;;;31.36;40.33;100042.50;1820056;77;21246;-76
2021/06/20 11:05:57;;;;;;;4.25;2.25;;;;;;;31.34;39.81;100036.53;1822669;77;20188;-77
2021/06/20 11:08:32;;;;;;;5.72;2.83;;;;;;;31.35;40.54;100040.86;1829959;77;21007;-74
2021/06/20 11:11:15;;;;;;;3.40;2.52;;;;;;;31.47;40.74;100035.75;1813747;77;21014;-76
2021/06/20 11:13:44;;;;;;;4.70;2.62;;;;;;;31.50;40.83;100035.15;1814865;77;21022;-74
2021/06/20 11:16:32;;;;;;;4.45;2.80;;;;;;;31.58;40.82;100026.86;1797670;78;21063;-75
2021/06/20 11:19:25;;;;;;;4.22;2.85;;;;;;;31.58;40.93;100032.88;1811970;77;21042;-77
2021/06/20 11:21:56;;;;;;;3.50;2.60;;;;;;;31.68;39.88;100023.13;1817001;77;21751;-77
2021/06/20 11:24:34;;;;;;;3.17;2.75;;;;;;;31.78;40.36;100033.87;1776684;79;22073;-75
2021/06/20 11:27:10;;;;;;;5.15;2.83;;;;;;;31.88;39.95;100021.14;1754854;79;21793;-75